sensor_id;sensor_type;location;lat;lon;timestamp;P1;durP1;ratioP1;P2;durP2;ratioP2
12861;SDS011;6499;66.348;14.134;2023-02-15T00:01:22;5.40;;;2.70;;
12861;SDS011;6499;66.348;14.134;2023-02-15T00:03:48;3.73;;;2.43;;
12861;SDS011;6499;66.348;14.134;2023-02-15T00:06:16;6.40;;;2.90;;
12861;SDS011;6499;66.348;14.134;2023-02-15T00:08:43;6.63;;;2.80;;
12861;SDS011;6499;66.348;14.134;2023-02-15T00:11:10;8.77;;;3.13;;
12861;SDS011;6499;66.348;14.134;2023-02-15T00:13:37;3.10;;;2.50;;
12861;SDS011;6499;66.348;14.134;2023-02-15T00:16:07;3.70;;;2.30;;
12861;SDS011;6499;66.348;14.134;2023-02-15T00:18:34;3.27;;;2.27;;
12861;SDS011;6499;66.348;14.134;2023-02-15T00:21:03;3.30;;;2.30;;
12861;SDS011;6499;66.348;14.134;2023-02-15T00:23:31;6.27;;;2.97;;
12861;SDS011;6499;66.348;14.134;2023-02-15T00:26:04;5.13;;;2.80;;
12861;SDS011;6499;66.348;14.134;2023-02-15T00:28:31;4.67;;;2.70;;
12861;SDS011;6499;66.348;14.134;2023-02-15T00:31:02;4.67;;;2.43;;
12861;SDS011;6499;66.348;14.134;2023-02-15T00:33:28;5.37;;;3.03;;
12861;SDS011;6499;66.348;14.134;2023-02-15T00:35:55;5.83;;;2.80;;
12861;SDS011;6499;66.348;14.134;2023-02-15T00:38:22;4.30;;;2.93;;
12861;SDS011;6499;66.348;14.134;2023-02-15T00:40:52;5.10;;;3.00;;
12861;SDS011;6499;66.348;14.134;2023-02-15T00:43:19;5.03;;;2.90;;
12861;SDS011;6499;66.348;14.134;2023-02-15T00:45:45;5.47;;;2.63;;
12861;SDS011;6499;66.348;14.134;2023-02-15T00:48:12;3.60;;;2.10;;
12861;SDS011;6499;66.348;14.134;2023-02-15T00:50:38;3.50;;;2.57;;
12861;SDS011;6499;66.348;14.134;2023-02-15T00:53:05;5.13;;;2.50;;
12861;SDS011;6499;66.348;14.134;2023-02-15T00:55:31;5.20;;;2.10;;
12861;SDS011;6499;66.348;14.134;2023-02-15T00:57:59;3.93;;;2.20;;
12861;SDS011;6499;66.348;14.134;2023-02-15T01:00:26;3.63;;;2.63;;
12861;SDS011;6499;66.348;14.134;2023-02-15T01:02:52;4.27;;;2.93;;
12861;SDS011;6499;66.348;14.134;2023-02-15T01:05:19;4.80;;;3.10;;
12861;SDS011;6499;66.348;14.134;2023-02-15T01:07:45;7.23;;;3.50;;
12861;SDS011;6499;66.348;14.134;2023-02-15T01:10:11;5.33;;;2.63;;
12861;SDS011;6499;66.348;14.134;2023-02-15T01:12:38;7.83;;;4.20;;
12861;SDS011;6499;66.348;14.134;2023-02-15T01:15:06;7.07;;;3.90;;
12861;SDS011;6499;66.348;14.134;2023-02-15T01:17:33;7.70;;;4.23;;
12861;SDS011;6499;66.348;14.134;2023-02-15T01:19:59;10.13;;;4.70;;
12861;SDS011;6499;66.348;14.134;2023-02-15T01:22:26;6.23;;;4.57;;
12861;SDS011;6499;66.348;14.134;2023-02-15T01:24:52;6.20;;;4.10;;
12861;SDS011;6499;66.348;14.134;2023-02-15T01:27:19;5.50;;;4.33;;
12861;SDS011;6499;66.348;14.134;2023-02-15T01:29:45;8.63;;;3.67;;
12861;SDS011;6499;66.348;14.134;2023-02-15T01:32:13;9.17;;;4.47;;
12861;SDS011;6499;66.348;14.134;2023-02-15T01:34:40;7.20;;;4.50;;
12861;SDS011;6499;66.348;14.134;2023-02-15T01:37:06;10.23;;;4.77;;
12861;SDS011;6499;66.348;14.134;2023-02-15T01:39:33;10.30;;;5.10;;
12861;SDS011;6499;66.348;14.134;2023-02-15T01:41:59;7.87;;;5.00;;
12861;SDS011;6499;66.348;14.134;2023-02-15T01:47:10;8.63;;;4.77;;
12861;SDS011;6499;66.348;14.134;2023-02-15T01:49:40;6.90;;;4.47;;
12861;SDS011;6499;66.348;14.134;2023-02-15T01:52:07;12.07;;;4.60;;
12861;SDS011;6499;66.348;14.134;2023-02-15T01:54:34;6.63;;;4.50;;
12861;SDS011;6499;66.348;14.134;2023-02-15T01:57:02;6.17;;;3.73;;
12861;SDS011;6499;66.348;14.134;2023-02-15T01:59:29;6.13;;;3.70;;
12861;SDS011;6499;66.348;14.134;2023-02-15T02:01:58;6.07;;;4.17;;
12861;SDS011;6499;66.348;14.134;2023-02-15T02:04:27;7.60;;;3.73;;
12861;SDS011;6499;66.348;14.134;2023-02-15T02:06:57;7.13;;;3.80;;
12861;SDS011;6499;66.348;14.134;2023-02-15T02:09:23;5.63;;;4.13;;
12861;SDS011;6499;66.348;14.134;2023-02-15T02:11:50;7.23;;;4.70;;
12861;SDS011;6499;66.348;14.134;2023-02-15T02:14:19;23.90;;;6.03;;
12861;SDS011;6499;66.348;14.134;2023-02-15T02:16:47;8.63;;;4.60;;
12861;SDS011;6499;66.348;14.134;2023-02-15T02:25:05;6.17;;;4.60;;
12861;SDS011;6499;66.348;14.134;2023-02-15T02:27:37;20.00;;;5.30;;
12861;SDS011;6499;66.348;14.134;2023-02-15T02:35:36;16.57;;;5.40;;
12861;SDS011;6499;66.348;14.134;2023-02-15T02:38:07;6.37;;;5.03;;
12861;SDS011;6499;66.348;14.134;2023-02-15T02:40:36;10.70;;;5.17;;
12861;SDS011;6499;66.348;14.134;2023-02-15T02:43:05;7.70;;;5.13;;
12861;SDS011;6499;66.348;14.134;2023-02-15T02:45:36;5.70;;;4.77;;
12861;SDS011;6499;66.348;14.134;2023-02-15T02:48:06;8.60;;;5.00;;
12861;SDS011;6499;66.348;14.134;2023-02-15T02:50:38;15.47;;;4.80;;
12861;SDS011;6499;66.348;14.134;2023-02-15T02:53:04;6.00;;;3.83;;
12861;SDS011;6499;66.348;14.134;2023-02-15T02:55:31;7.20;;;4.40;;
12861;SDS011;6499;66.348;14.134;2023-02-15T02:58:00;10.57;;;5.03;;
12861;SDS011;6499;66.348;14.134;2023-02-15T03:00:29;7.53;;;4.47;;
12861;SDS011;6499;66.348;14.134;2023-02-15T03:02:58;23.53;;;5.50;;
12861;SDS011;6499;66.348;14.134;2023-02-15T03:05:30;7.27;;;4.23;;
12861;SDS011;6499;66.348;14.134;2023-02-15T03:07:59;6.17;;;4.60;;
12861;SDS011;6499;66.348;14.134;2023-02-15T03:10:31;7.13;;;4.43;;
12861;SDS011;6499;66.348;14.134;2023-02-15T03:12:58;7.50;;;4.23;;
12861;SDS011;6499;66.348;14.134;2023-02-15T03:15:26;9.03;;;3.80;;
12861;SDS011;6499;66.348;14.134;2023-02-15T03:18:15;4.67;;;3.57;;
12861;SDS011;6499;66.348;14.134;2023-02-15T03:20:42;5.80;;;3.40;;
12861;SDS011;6499;66.348;14.134;2023-02-15T03:23:12;4.50;;;3.10;;
12861;SDS011;6499;66.348;14.134;2023-02-15T03:25:40;7.17;;;4.03;;
12861;SDS011;6499;66.348;14.134;2023-02-15T03:28:08;11.13;;;4.30;;
12861;SDS011;6499;66.348;14.134;2023-02-15T03:30:36;9.73;;;3.47;;
12861;SDS011;6499;66.348;14.134;2023-02-15T03:33:04;4.10;;;2.90;;
12861;SDS011;6499;66.348;14.134;2023-02-15T03:35:33;18.40;;;3.97;;
12861;SDS011;6499;66.348;14.134;2023-02-15T03:38:02;10.03;;;3.23;;
12861;SDS011;6499;66.348;14.134;2023-02-15T03:40:31;5.80;;;2.83;;
12861;SDS011;6499;66.348;14.134;2023-02-15T03:43:19;3.53;;;2.60;;
12861;SDS011;6499;66.348;14.134;2023-02-15T03:45:49;4.70;;;2.80;;
12861;SDS011;6499;66.348;14.134;2023-02-15T03:48:21;2.93;;;2.40;;
12861;SDS011;6499;66.348;14.134;2023-02-15T03:50:48;2.83;;;2.57;;
12861;SDS011;6499;66.348;14.134;2023-02-15T03:53:32;3.93;;;3.20;;
12861;SDS011;6499;66.348;14.134;2023-02-15T03:56:00;5.90;;;3.60;;
12861;SDS011;6499;66.348;14.134;2023-02-15T03:58:26;4.83;;;3.33;;
12861;SDS011;6499;66.348;14.134;2023-02-15T04:01:20;5.43;;;4.00;;
12861;SDS011;6499;66.348;14.134;2023-02-15T04:04:07;6.03;;;3.80;;
12861;SDS011;6499;66.348;14.134;2023-02-15T04:06:35;5.33;;;3.83;;
12861;SDS011;6499;66.348;14.134;2023-02-15T04:09:01;4.07;;;3.20;;
12861;SDS011;6499;66.348;14.134;2023-02-15T04:11:47;5.67;;;3.57;;
12861;SDS011;6499;66.348;14.134;2023-02-15T04:14:13;4.50;;;3.30;;
12861;SDS011;6499;66.348;14.134;2023-02-15T04:16:57;5.07;;;3.50;;
12861;SDS011;6499;66.348;14.134;2023-02-15T04:19:23;6.87;;;3.83;;
12861;SDS011;6499;66.348;14.134;2023-02-15T04:22:07;4.43;;;3.80;;
12861;SDS011;6499;66.348;14.134;2023-02-15T04:24:51;5.13;;;3.80;;
12861;SDS011;6499;66.348;14.134;2023-02-15T04:27:37;6.27;;;3.43;;
12861;SDS011;6499;66.348;14.134;2023-02-15T04:30:05;6.00;;;3.40;;
12861;SDS011;6499;66.348;14.134;2023-02-15T04:32:31;4.70;;;3.13;;
12861;SDS011;6499;66.348;14.134;2023-02-15T04:34:58;5.90;;;3.30;;
12861;SDS011;6499;66.348;14.134;2023-02-15T04:37:24;4.60;;;3.13;;
12861;SDS011;6499;66.348;14.134;2023-02-15T04:39:51;4.57;;;3.53;;
12861;SDS011;6499;66.348;14.134;2023-02-15T04:42:17;4.80;;;3.60;;
12861;SDS011;6499;66.348;14.134;2023-02-15T04:44:45;9.53;;;4.07;;
12861;SDS011;6499;66.348;14.134;2023-02-15T04:47:12;4.30;;;3.70;;
12861;SDS011;6499;66.348;14.134;2023-02-15T04:49:38;5.10;;;3.23;;
12861;SDS011;6499;66.348;14.134;2023-02-15T04:52:05;7.23;;;3.60;;
12861;SDS011;6499;66.348;14.134;2023-02-15T04:54:31;4.77;;;3.90;;
12861;SDS011;6499;66.348;14.134;2023-02-15T04:56:58;5.73;;;3.57;;
12861;SDS011;6499;66.348;14.134;2023-02-15T04:59:24;9.13;;;4.30;;
12861;SDS011;6499;66.348;14.134;2023-02-15T05:01:52;19.37;;;4.93;;
12861;SDS011;6499;66.348;14.134;2023-02-15T05:04:19;5.60;;;3.63;;
12861;SDS011;6499;66.348;14.134;2023-02-15T05:06:45;6.50;;;3.37;;
12861;SDS011;6499;66.348;14.134;2023-02-15T05:09:12;5.77;;;2.67;;
12861;SDS011;6499;66.348;14.134;2023-02-15T05:11:38;6.30;;;3.10;;
12861;SDS011;6499;66.348;14.134;2023-02-15T05:14:05;3.50;;;2.50;;
12861;SDS011;6499;66.348;14.134;2023-02-15T05:16:31;3.43;;;2.60;;
12861;SDS011;6499;66.348;14.134;2023-02-15T05:18:59;2.87;;;2.30;;
12861;SDS011;6499;66.348;14.134;2023-02-15T05:21:26;4.07;;;2.50;;
12861;SDS011;6499;66.348;14.134;2023-02-15T05:23:52;4.27;;;2.30;;
12861;SDS011;6499;66.348;14.134;2023-02-15T05:26:19;3.70;;;2.40;;
12861;SDS011;6499;66.348;14.134;2023-02-15T05:29:03;2.00;;;1.80;;
12861;SDS011;6499;66.348;14.134;2023-02-15T05:31:30;3.43;;;2.10;;
12861;SDS011;6499;66.348;14.134;2023-02-15T05:33:57;3.10;;;2.10;;
12861;SDS011;6499;66.348;14.134;2023-02-15T05:36:25;3.07;;;2.47;;
12861;SDS011;6499;66.348;14.134;2023-02-15T05:38:51;2.57;;;2.07;;
12861;SDS011;6499;66.348;14.134;2023-02-15T05:41:18;3.63;;;2.50;;
12861;SDS011;6499;66.348;14.134;2023-02-15T05:43:44;3.30;;;2.47;;
12861;SDS011;6499;66.348;14.134;2023-02-15T05:46:11;1.87;;;1.70;;
12861;SDS011;6499;66.348;14.134;2023-02-15T05:48:37;2.63;;;1.73;;
12861;SDS011;6499;66.348;14.134;2023-02-15T05:51:05;3.20;;;1.97;;
12861;SDS011;6499;66.348;14.134;2023-02-15T05:53:33;2.43;;;2.23;;
12861;SDS011;6499;66.348;14.134;2023-02-15T05:56:08;2.17;;;1.80;;
12861;SDS011;6499;66.348;14.134;2023-02-15T05:58:36;3.10;;;2.20;;
12861;SDS011;6499;66.348;14.134;2023-02-15T06:01:07;3.00;;;2.07;;
12861;SDS011;6499;66.348;14.134;2023-02-15T06:03:33;3.00;;;2.47;;
12861;SDS011;6499;66.348;14.134;2023-02-15T06:06:00;2.73;;;2.03;;
12861;SDS011;6499;66.348;14.134;2023-02-15T06:08:27;2.37;;;2.17;;
12861;SDS011;6499;66.348;14.134;2023-02-15T06:10:55;5.27;;;3.00;;
12861;SDS011;6499;66.348;14.134;2023-02-15T06:13:21;4.23;;;2.70;;
12861;SDS011;6499;66.348;14.134;2023-02-15T06:15:48;3.00;;;2.43;;
12861;SDS011;6499;66.348;14.134;2023-02-15T06:18:14;3.67;;;2.67;;
12861;SDS011;6499;66.348;14.134;2023-02-15T06:20:41;3.20;;;2.57;;
12861;SDS011;6499;66.348;14.134;2023-02-15T06:23:07;4.93;;;2.60;;
12861;SDS011;6499;66.348;14.134;2023-02-15T06:25:34;3.53;;;2.50;;
12861;SDS011;6499;66.348;14.134;2023-02-15T06:28:02;3.27;;;2.07;;
12861;SDS011;6499;66.348;14.134;2023-02-15T06:30:28;2.87;;;2.40;;
12861;SDS011;6499;66.348;14.134;2023-02-15T06:32:55;3.20;;;2.63;;
12861;SDS011;6499;66.348;14.134;2023-02-15T06:35:21;2.70;;;2.17;;
12861;SDS011;6499;66.348;14.134;2023-02-15T06:37:48;2.13;;;1.60;;
12861;SDS011;6499;66.348;14.134;2023-02-15T06:40:15;1.40;;;1.30;;
12861;SDS011;6499;66.348;14.134;2023-02-15T06:42:42;3.57;;;1.60;;
12861;SDS011;6499;66.348;14.134;2023-02-15T06:45:10;1.63;;;1.53;;
12861;SDS011;6499;66.348;14.134;2023-02-15T06:47:36;1.40;;;1.20;;
12861;SDS011;6499;66.348;14.134;2023-02-15T06:50:03;1.50;;;1.40;;
12861;SDS011;6499;66.348;14.134;2023-02-15T06:52:29;1.30;;;1.20;;
12861;SDS011;6499;66.348;14.134;2023-02-15T06:54:56;1.33;;;1.23;;
12861;SDS011;6499;66.348;14.134;2023-02-15T06:57:22;1.57;;;1.40;;
12861;SDS011;6499;66.348;14.134;2023-02-15T06:59:49;2.20;;;1.73;;
12861;SDS011;6499;66.348;14.134;2023-02-15T07:02:17;1.60;;;1.50;;
12861;SDS011;6499;66.348;14.134;2023-02-15T07:04:43;1.77;;;1.67;;
12861;SDS011;6499;66.348;14.134;2023-02-15T07:07:10;2.27;;;1.60;;
12861;SDS011;6499;66.348;14.134;2023-02-15T07:09:37;2.77;;;2.50;;
12861;SDS011;6499;66.348;14.134;2023-02-15T07:12:03;2.50;;;2.23;;
12861;SDS011;6499;66.348;14.134;2023-02-15T07:14:47;2.50;;;2.30;;
12861;SDS011;6499;66.348;14.134;2023-02-15T07:17:14;2.70;;;2.20;;
12861;SDS011;6499;66.348;14.134;2023-02-15T07:19:42;2.30;;;1.80;;
12861;SDS011;6499;66.348;14.134;2023-02-15T07:22:08;3.43;;;1.87;;
12861;SDS011;6499;66.348;14.134;2023-02-15T07:24:34;2.77;;;2.20;;
12861;SDS011;6499;66.348;14.134;2023-02-15T07:27:01;3.43;;;2.10;;
12861;SDS011;6499;66.348;14.134;2023-02-15T07:29:28;2.93;;;2.00;;
12861;SDS011;6499;66.348;14.134;2023-02-15T07:31:54;3.67;;;2.23;;
12861;SDS011;6499;66.348;14.134;2023-02-15T07:34:21;2.97;;;2.40;;
12861;SDS011;6499;66.348;14.134;2023-02-15T07:36:51;4.37;;;3.07;;
12861;SDS011;6499;66.348;14.134;2023-02-15T07:39:18;4.53;;;3.33;;
12861;SDS011;6499;66.348;14.134;2023-02-15T07:41:45;4.50;;;2.40;;
12861;SDS011;6499;66.348;14.134;2023-02-15T07:44:12;2.90;;;1.87;;
12861;SDS011;6499;66.348;14.134;2023-02-15T07:46:39;2.23;;;1.80;;
12861;SDS011;6499;66.348;14.134;2023-02-15T07:49:05;5.13;;;2.50;;
12861;SDS011;6499;66.348;14.134;2023-02-15T07:51:32;5.17;;;2.80;;
12861;SDS011;6499;66.348;14.134;2023-02-15T07:53:59;3.30;;;2.80;;
12861;SDS011;6499;66.348;14.134;2023-02-15T07:56:26;7.50;;;4.30;;
12861;SDS011;6499;66.348;14.134;2023-02-15T07:58:52;5.93;;;4.07;;
12861;SDS011;6499;66.348;14.134;2023-02-15T08:01:21;7.07;;;3.60;;
12861;SDS011;6499;66.348;14.134;2023-02-15T08:03:49;4.40;;;3.30;;
12861;SDS011;6499;66.348;14.134;2023-02-15T08:06:15;5.03;;;2.87;;
12861;SDS011;6499;66.348;14.134;2023-02-15T08:08:42;4.07;;;3.10;;
12861;SDS011;6499;66.348;14.134;2023-02-15T08:11:15;38.60;;;20.83;;
12861;SDS011;6499;66.348;14.134;2023-02-15T08:14:03;11.23;;;6.97;;
12861;SDS011;6499;66.348;14.134;2023-02-15T08:16:30;6.77;;;3.80;;
12861;SDS011;6499;66.348;14.134;2023-02-15T08:18:57;3.57;;;2.80;;
12861;SDS011;6499;66.348;14.134;2023-02-15T08:21:25;2.10;;;1.90;;
12861;SDS011;6499;66.348;14.134;2023-02-15T08:23:52;1.80;;;1.60;;
12861;SDS011;6499;66.348;14.134;2023-02-15T08:26:20;1.60;;;1.50;;
12861;SDS011;6499;66.348;14.134;2023-02-15T08:28:48;1.97;;;1.87;;
12861;SDS011;6499;66.348;14.134;2023-02-15T08:31:15;1.60;;;1.50;;
12861;SDS011;6499;66.348;14.134;2023-02-15T08:33:42;1.70;;;1.60;;
12861;SDS011;6499;66.348;14.134;2023-02-15T08:36:10;2.47;;;2.10;;
12861;SDS011;6499;66.348;14.134;2023-02-15T08:38:37;2.83;;;1.83;;
12861;SDS011;6499;66.348;14.134;2023-02-15T08:41:11;2.30;;;2.10;;
12861;SDS011;6499;66.348;14.134;2023-02-15T08:43:39;4.23;;;2.70;;
12861;SDS011;6499;66.348;14.134;2023-02-15T08:46:06;6.87;;;5.77;;
12861;SDS011;6499;66.348;14.134;2023-02-15T08:48:32;6.83;;;4.80;;
12861;SDS011;6499;66.348;14.134;2023-02-15T08:50:59;9.40;;;5.40;;
12861;SDS011;6499;66.348;14.134;2023-02-15T08:53:30;6.27;;;5.53;;
12861;SDS011;6499;66.348;14.134;2023-02-15T08:55:56;10.63;;;8.43;;
12861;SDS011;6499;66.348;14.134;2023-02-15T08:58:23;7.60;;;5.87;;
12861;SDS011;6499;66.348;14.134;2023-02-15T09:00:51;3.43;;;2.87;;
12861;SDS011;6499;66.348;14.134;2023-02-15T09:03:17;2.13;;;1.70;;
12861;SDS011;6499;66.348;14.134;2023-02-15T09:05:44;2.20;;;1.80;;
12861;SDS011;6499;66.348;14.134;2023-02-15T09:08:10;1.60;;;1.50;;
12861;SDS011;6499;66.348;14.134;2023-02-15T09:10:37;1.70;;;1.60;;
12861;SDS011;6499;66.348;14.134;2023-02-15T09:13:03;1.73;;;1.60;;
12861;SDS011;6499;66.348;14.134;2023-02-15T09:15:30;1.50;;;1.40;;
12861;SDS011;6499;66.348;14.134;2023-02-15T09:17:58;2.33;;;1.70;;
12861;SDS011;6499;66.348;14.134;2023-02-15T09:20:26;2.57;;;1.70;;
12861;SDS011;6499;66.348;14.134;2023-02-15T09:22:53;4.53;;;3.10;;
12861;SDS011;6499;66.348;14.134;2023-02-15T09:25:19;2.40;;;2.20;;
12861;SDS011;6499;66.348;14.134;2023-02-15T09:27:46;2.77;;;2.07;;
12861;SDS011;6499;66.348;14.134;2023-02-15T09:30:13;5.43;;;2.47;;
12861;SDS011;6499;66.348;14.134;2023-02-15T09:32:39;3.57;;;2.17;;
12861;SDS011;6499;66.348;14.134;2023-02-15T09:35:07;2.30;;;2.10;;
12861;SDS011;6499;66.348;14.134;2023-02-15T09:37:34;2.53;;;1.90;;
12861;SDS011;6499;66.348;14.134;2023-02-15T09:40:00;1.70;;;1.60;;
12861;SDS011;6499;66.348;14.134;2023-02-15T09:42:34;2.67;;;1.80;;
12861;SDS011;6499;66.348;14.134;2023-02-15T09:45:11;3.23;;;2.30;;
12861;SDS011;6499;66.348;14.134;2023-02-15T09:47:43;4.00;;;2.43;;
12861;SDS011;6499;66.348;14.134;2023-02-15T09:50:15;4.40;;;2.80;;
12861;SDS011;6499;66.348;14.134;2023-02-15T09:52:49;3.23;;;2.67;;
12861;SDS011;6499;66.348;14.134;2023-02-15T09:55:22;4.27;;;2.80;;
12861;SDS011;6499;66.348;14.134;2023-02-15T09:57:52;3.40;;;3.00;;
12861;SDS011;6499;66.348;14.134;2023-02-15T10:00:24;4.57;;;3.53;;
12861;SDS011;6499;66.348;14.134;2023-02-15T10:03:02;3.93;;;2.60;;
12861;SDS011;6499;66.348;14.134;2023-02-15T10:05:34;6.80;;;3.80;;
12861;SDS011;6499;66.348;14.134;2023-02-15T10:08:08;4.40;;;3.70;;
12861;SDS011;6499;66.348;14.134;2023-02-15T10:10:36;5.30;;;3.97;;
12861;SDS011;6499;66.348;14.134;2023-02-15T10:13:11;6.30;;;4.23;;
12861;SDS011;6499;66.348;14.134;2023-02-15T10:15:46;5.17;;;4.63;;
12861;SDS011;6499;66.348;14.134;2023-02-15T10:21:04;8.30;;;4.40;;
12861;SDS011;6499;66.348;14.134;2023-02-15T10:23:41;7.03;;;4.50;;
12861;SDS011;6499;66.348;14.134;2023-02-15T10:26:11;5.90;;;4.40;;
12861;SDS011;6499;66.348;14.134;2023-02-15T10:28:43;5.37;;;4.43;;
12861;SDS011;6499;66.348;14.134;2023-02-15T10:31:12;4.67;;;4.07;;
12861;SDS011;6499;66.348;14.134;2023-02-15T10:33:46;6.10;;;4.77;;
12861;SDS011;6499;66.348;14.134;2023-02-15T10:36:21;7.93;;;4.80;;
12861;SDS011;6499;66.348;14.134;2023-02-15T10:38:54;6.17;;;4.73;;
12861;SDS011;6499;66.348;14.134;2023-02-15T10:41:28;6.43;;;5.10;;
12861;SDS011;6499;66.348;14.134;2023-02-15T10:46:53;12.23;;;7.23;;
12861;SDS011;6499;66.348;14.134;2023-02-15T10:49:26;8.23;;;6.83;;
12861;SDS011;6499;66.348;14.134;2023-02-15T10:52:03;15.33;;;5.90;;
12861;SDS011;6499;66.348;14.134;2023-02-15T10:54:34;7.43;;;5.40;;
12861;SDS011;6499;66.348;14.134;2023-02-15T10:57:03;7.83;;;5.87;;
12861;SDS011;6499;66.348;14.134;2023-02-15T10:59:37;10.00;;;6.63;;
12861;SDS011;6499;66.348;14.134;2023-02-15T11:02:09;11.27;;;6.80;;
12861;SDS011;6499;66.348;14.134;2023-02-15T11:04:48;9.30;;;6.27;;
12861;SDS011;6499;66.348;14.134;2023-02-15T11:07:20;13.43;;;7.17;;
12861;SDS011;6499;66.348;14.134;2023-02-15T11:09:48;9.93;;;7.40;;
12861;SDS011;6499;66.348;14.134;2023-02-15T11:12:16;23.17;;;7.47;;
12861;SDS011;6499;66.348;14.134;2023-02-15T11:14:46;32.93;;;7.70;;
12861;SDS011;6499;66.348;14.134;2023-02-15T11:17:16;38.50;;;7.67;;
12861;SDS011;6499;66.348;14.134;2023-02-15T11:19:45;25.50;;;7.00;;
12861;SDS011;6499;66.348;14.134;2023-02-15T11:22:16;13.70;;;6.70;;
12861;SDS011;6499;66.348;14.134;2023-02-15T11:24:44;17.00;;;7.47;;
12861;SDS011;6499;66.348;14.134;2023-02-15T11:27:16;23.47;;;7.60;;
12861;SDS011;6499;66.348;14.134;2023-02-15T11:29:50;9.57;;;6.23;;
12861;SDS011;6499;66.348;14.134;2023-02-15T11:32:20;35.37;;;7.43;;
12861;SDS011;6499;66.348;14.134;2023-02-15T11:34:48;16.07;;;6.50;;
12861;SDS011;6499;66.348;14.134;2023-02-15T11:37:18;23.37;;;5.97;;
12861;SDS011;6499;66.348;14.134;2023-02-15T11:39:50;9.17;;;6.83;;
12861;SDS011;6499;66.348;14.134;2023-02-15T11:42:20;11.10;;;5.97;;
12861;SDS011;6499;66.348;14.134;2023-02-15T11:44:49;11.53;;;6.20;;
12861;SDS011;6499;66.348;14.134;2023-02-15T11:47:18;14.23;;;6.40;;
12861;SDS011;6499;66.348;14.134;2023-02-15T11:49:45;31.00;;;6.90;;
12861;SDS011;6499;66.348;14.134;2023-02-15T11:52:12;12.47;;;5.63;;
12861;SDS011;6499;66.348;14.134;2023-02-15T11:54:39;11.47;;;5.30;;
12861;SDS011;6499;66.348;14.134;2023-02-15T11:57:12;21.87;;;5.43;;
12861;SDS011;6499;66.348;14.134;2023-02-15T11:59:41;39.57;;;6.60;;
12861;SDS011;6499;66.348;14.134;2023-02-15T12:02:14;20.53;;;5.27;;
12861;SDS011;6499;66.348;14.134;2023-02-15T12:04:41;18.87;;;5.73;;
12861;SDS011;6499;66.348;14.134;2023-02-15T12:07:11;11.70;;;5.03;;
12861;SDS011;6499;66.348;14.134;2023-02-15T12:09:42;11.80;;;5.67;;
12861;SDS011;6499;66.348;14.134;2023-02-15T12:12:20;20.10;;;5.90;;
12861;SDS011;6499;66.348;14.134;2023-02-15T12:14:48;33.33;;;6.33;;
12861;SDS011;6499;66.348;14.134;2023-02-15T12:17:15;11.13;;;5.67;;
12861;SDS011;6499;66.348;14.134;2023-02-15T12:19:42;23.03;;;5.97;;
12861;SDS011;6499;66.348;14.134;2023-02-15T12:22:17;18.47;;;5.37;;
12861;SDS011;6499;66.348;14.134;2023-02-15T12:24:45;50.17;;;6.47;;
12861;SDS011;6499;66.348;14.134;2023-02-15T12:27:14;69.30;;;6.87;;
12861;SDS011;6499;66.348;14.134;2023-02-15T12:29:44;112.23;;;8.13;;
12861;SDS011;6499;66.348;14.134;2023-02-15T12:32:16;47.00;;;5.23;;
12861;SDS011;6499;66.348;14.134;2023-02-15T12:34:43;37.57;;;5.60;;
12861;SDS011;6499;66.348;14.134;2023-02-15T12:37:15;67.90;;;6.53;;
12861;SDS011;6499;66.348;14.134;2023-02-15T12:39:50;67.77;;;5.80;;
12861;SDS011;6499;66.348;14.134;2023-02-15T12:42:17;32.53;;;5.23;;
12861;SDS011;6499;66.348;14.134;2023-02-15T12:44:54;43.00;;;5.40;;
12861;SDS011;6499;66.348;14.134;2023-02-15T12:47:20;35.63;;;5.33;;
12861;SDS011;6499;66.348;14.134;2023-02-15T12:50:03;27.00;;;5.00;;
12861;SDS011;6499;66.348;14.134;2023-02-15T12:52:30;29.07;;;4.27;;
12861;SDS011;6499;66.348;14.134;2023-02-15T12:55:03;62.33;;;5.50;;
12861;SDS011;6499;66.348;14.134;2023-02-15T12:57:35;14.47;;;4.10;;
12861;SDS011;6499;66.348;14.134;2023-02-15T13:00:04;39.57;;;4.83;;
12861;SDS011;6499;66.348;14.134;2023-02-15T13:02:35;54.80;;;5.63;;
12861;SDS011;6499;66.348;14.134;2023-02-15T13:05:10;21.43;;;4.00;;
12861;SDS011;6499;66.348;14.134;2023-02-15T13:07:43;25.13;;;4.57;;
12861;SDS011;6499;66.348;14.134;2023-02-15T13:10:18;32.30;;;4.00;;
12861;SDS011;6499;66.348;14.134;2023-02-15T13:12:46;19.93;;;4.13;;
12861;SDS011;6499;66.348;14.134;2023-02-15T13:15:23;26.60;;;4.30;;
12861;SDS011;6499;66.348;14.134;2023-02-15T13:17:51;29.23;;;4.57;;
12861;SDS011;6499;66.348;14.134;2023-02-15T13:20:18;38.60;;;4.33;;
12861;SDS011;6499;66.348;14.134;2023-02-15T13:22:46;33.50;;;4.70;;
12861;SDS011;6499;66.348;14.134;2023-02-15T13:25:17;25.60;;;4.20;;
12861;SDS011;6499;66.348;14.134;2023-02-15T13:27:43;37.27;;;4.63;;
12861;SDS011;6499;66.348;14.134;2023-02-15T13:30:13;38.83;;;4.40;;
12861;SDS011;6499;66.348;14.134;2023-02-15T13:32:45;44.70;;;4.47;;
12861;SDS011;6499;66.348;14.134;2023-02-15T13:35:13;40.20;;;4.47;;
12861;SDS011;6499;66.348;14.134;2023-02-15T13:37:53;34.03;;;3.77;;
12861;SDS011;6499;66.348;14.134;2023-02-15T13:40:25;13.47;;;2.97;;
12861;SDS011;6499;66.348;14.134;2023-02-15T13:42:53;22.00;;;3.60;;
12861;SDS011;6499;66.348;14.134;2023-02-15T13:45:26;13.43;;;3.17;;
12861;SDS011;6499;66.348;14.134;2023-02-15T13:47:58;20.20;;;3.13;;
12861;SDS011;6499;66.348;14.134;2023-02-15T13:50:32;10.60;;;2.97;;
12861;SDS011;6499;66.348;14.134;2023-02-15T13:53:07;22.20;;;3.10;;
12861;SDS011;6499;66.348;14.134;2023-02-15T13:55:37;14.90;;;2.60;;
12861;SDS011;6499;66.348;14.134;2023-02-15T13:58:14;17.00;;;2.60;;
12861;SDS011;6499;66.348;14.134;2023-02-15T14:00:45;4.43;;;2.57;;
12861;SDS011;6499;66.348;14.134;2023-02-15T14:08:57;8.43;;;2.53;;
12861;SDS011;6499;66.348;14.134;2023-02-15T14:11:27;21.23;;;5.27;;
12861;SDS011;6499;66.348;14.134;2023-02-15T14:16:45;13.43;;;6.07;;
12861;SDS011;6499;66.348;14.134;2023-02-15T14:19:16;81.87;;;6.90;;
12861;SDS011;6499;66.348;14.134;2023-02-15T14:21:47;9.20;;;4.97;;
12861;SDS011;6499;66.348;14.134;2023-02-15T14:24:21;7.97;;;4.63;;
12861;SDS011;6499;66.348;14.134;2023-02-15T14:26:51;17.90;;;5.30;;
12861;SDS011;6499;66.348;14.134;2023-02-15T14:29:24;16.83;;;3.93;;
12861;SDS011;6499;66.348;14.134;2023-02-15T14:31:55;33.67;;;4.77;;
12861;SDS011;6499;66.348;14.134;2023-02-15T14:34:24;22.83;;;4.17;;
12861;SDS011;6499;66.348;14.134;2023-02-15T14:36:54;7.57;;;3.20;;
12861;SDS011;6499;66.348;14.134;2023-02-15T14:39:29;7.33;;;3.23;;
12861;SDS011;6499;66.348;14.134;2023-02-15T14:42:16;10.43;;;2.90;;
12861;SDS011;6499;66.348;14.134;2023-02-15T14:44:45;6.77;;;3.10;;
12861;SDS011;6499;66.348;14.134;2023-02-15T14:47:16;8.07;;;2.83;;
12861;SDS011;6499;66.348;14.134;2023-02-15T14:49:44;4.70;;;3.30;;
12861;SDS011;6499;66.348;14.134;2023-02-15T14:52:11;17.53;;;4.40;;
12861;SDS011;6499;66.348;14.134;2023-02-15T14:54:55;13.53;;;3.87;;
12861;SDS011;6499;66.348;14.134;2023-02-15T14:57:23;28.77;;;4.70;;
12861;SDS011;6499;66.348;14.134;2023-02-15T14:59:52;30.30;;;4.43;;
12861;SDS011;6499;66.348;14.134;2023-02-15T15:02:23;17.67;;;3.60;;
12861;SDS011;6499;66.348;14.134;2023-02-15T15:04:55;14.63;;;3.40;;
12861;SDS011;6499;66.348;14.134;2023-02-15T15:07:23;3.93;;;2.47;;
12861;SDS011;6499;66.348;14.134;2023-02-15T15:09:59;7.50;;;2.67;;
12861;SDS011;6499;66.348;14.134;2023-02-15T15:12:38;10.27;;;2.80;;
12861;SDS011;6499;66.348;14.134;2023-02-15T15:15:06;25.60;;;3.67;;
12861;SDS011;6499;66.348;14.134;2023-02-15T15:17:52;7.47;;;3.93;;
12861;SDS011;6499;66.348;14.134;2023-02-15T15:25:47;43.83;;;9.87;;
12861;SDS011;6499;66.348;14.134;2023-02-15T15:30:55;18.23;;;3.13;;
12861;SDS011;6499;66.348;14.134;2023-02-15T15:36:15;5.07;;;1.73;;